Time;durP1;ratioP1;P1;durP2;ratioP2;P2;SDS_P1;SDS_P2;PMS_P1;PMS_P2;Temp;Humidity;BMP_temperature;BMP_pressure;BME280_temperature;BME280_humidity;BME280_pressure;Samples;Min_cycle;Max_cycle;Signal;HPM_P1;HPM_P2
2022/12/11 00:02:08;;;;;;;57.33;51.90;;;;;;;13.50;100.00;99126.97;5036438;28;20049;-84
2022/12/11 00:04:35;;;;;;;55.05;50.65;;;;;;;14.12;100.00;99119.78;5037471;28;20053;-84
2022/12/11 00:07:03;;;;;;;54.85;50.15;;;;;;;14.31;100.00;99102.16;5017567;28;20141;-84
2022/12/11 00:09:31;;;;;;;66.45;60.83;;;;;;;14.47;100.00;99100.28;5021074;28;20042;-83
2022/12/11 00:11:57;;;;;;;85.43;76.43;;;;;;;14.37;100.00;99100.28;5036064;28;20050;-84
2022/12/11 00:14:24;;;;;;;64.80;58.67;;;;;;;14.48;100.00;99112.53;5037293;28;20049;-84
2022/12/11 00:16:51;;;;;;;60.58;55.17;;;;;;;14.34;100.00;99106.97;5036334;28;20453;-84
2022/12/11 00:19:17;;;;;;;82.32;74.22;;;;;;;14.18;100.00;99103.50;5022292;28;20490;-83
2022/12/11 00:21:44;;;;;;;108.40;96.97;;;;;;;13.97;100.00;99104.59;5017348;28;20124;-89
2022/12/11 00:24:13;;;;;;;59.28;54.15;;;;;;;14.21;100.00;99110.97;5027761;28;20041;-84
2022/12/11 00:26:39;;;;;;;54.47;49.78;;;;;;;14.13;100.00;99097.34;5036552;28;20050;-84
2022/12/11 00:29:07;;;;;;;77.57;69.72;;;;;;;13.77;100.00;99076.03;5036830;28;20050;-85
2022/12/11 00:31:34;;;;;;;61.35;55.55;;;;;;;13.91;100.00;99082.44;5036011;28;20111;-84
2022/12/11 00:34:02;;;;;;;57.88;52.72;;;;;;;14.05;100.00;99095.25;5035474;28;20045;-83
2022/12/11 00:36:28;;;;;;;79.50;72.07;;;;;;;14.05;100.00;99093.38;5036031;28;20114;-85
2022/12/11 00:38:55;;;;;;;62.78;57.08;;;;;;;13.39;100.00;99080.78;5035545;28;20124;-86
2022/12/11 00:41:24;;;;;;;60.55;55.25;;;;;;;13.46;100.00;99080.53;5035494;28;20114;-86
2022/12/11 00:43:51;;;;;;;89.15;81.25;;;;;;;12.71;100.00;99062.16;5035406;28;20054;-84
2022/12/11 00:46:18;;;;;;;63.42;57.65;;;;;;;13.44;100.00;99064.00;5036143;28;20049;-83
2022/12/11 00:48:47;;;;;;;63.88;58.03;;;;;;;13.23;100.00;99057.81;5035607;28;20061;-85
2022/12/11 00:51:14;;;;;;;62.25;56.75;;;;;;;12.84;100.00;99048.34;5035350;28;20057;-84
2022/12/11 00:53:41;;;;;;;62.42;57.30;;;;;;;13.16;100.00;99036.72;5035311;28;20041;-85
2022/12/11 00:56:12;;;;;;;64.85;59.47;;;;;;;12.93;100.00;99022.00;5034127;28;20049;-83
2022/12/11 00:58:41;;;;;;;68.72;62.63;;;;;;;12.60;100.00;99004.56;5034206;28;20099;-84
2022/12/11 01:01:09;;;;;;;60.50;55.30;;;;;;;12.29;100.00;99006.31;5116788;23;20037;-95
2022/12/11 01:03:36;;;;;;;54.38;49.63;;;;;;;13.15;100.00;99007.66;5046326;28;20062;-93
2022/12/11 01:06:04;;;;;;;53.70;49.17;;;;;;;13.13;100.00;99002.59;5042810;28;20045;-94
2022/12/11 01:08:31;;;;;;;59.38;53.92;;;;;;;13.00;100.00;99000.44;5059569;28;20053;-94
2022/12/11 01:11:04;;;;;;;65.50;59.45;;;;;;;13.24;100.00;98998.88;5059205;28;20033;-93
2022/12/11 01:13:31;;;;;;;58.40;53.47;;;;;;;13.30;100.00;99007.72;5059082;28;20046;-95
2022/12/11 01:16:00;;;;;;;60.42;55.08;;;;;;;13.34;100.00;98992.78;5059928;28;20056;-94
2022/12/11 01:18:26;;;;;;;62.88;57.40;;;;;;;12.60;100.00;98989.41;5058893;28;20026;-94
2022/12/11 01:20:53;;;;;;;57.95;52.97;;;;;;;13.67;100.00;98995.97;5057972;28;20037;-94
2022/12/11 01:23:20;;;;;;;57.17;52.30;;;;;;;13.69;100.00;98986.66;5058409;28;20026;-93
2022/12/11 01:25:47;;;;;;;62.72;57.13;;;;;;;13.36;100.00;98979.19;5058335;28;20045;-95
2022/12/11 01:28:14;;;;;;;58.97;54.13;;;;;;;13.58;100.00;98981.59;5058246;28;20072;-94
2022/12/11 01:30:42;;;;;;;56.90;51.95;;;;;;;13.43;100.00;98971.72;5058575;28;20029;-94
2022/12/11 01:33:11;;;;;;;57.00;51.60;;;;;;;13.79;100.00;98956.47;5058620;28;20028;-94
2022/12/11 01:35:39;;;;;;;53.75;49.30;;;;;;;13.72;100.00;98956.75;5058053;28;20037;-93
2022/12/11 01:38:07;;;;;;;56.17;51.15;;;;;;;13.82;100.00;98949.81;5058467;28;20041;-95
2022/12/11 01:40:34;;;;;;;58.95;53.95;;;;;;;13.95;100.00;98934.03;5058413;28;20117;-95
2022/12/11 01:43:01;;;;;;;56.63;51.30;;;;;;;14.32;100.00;98927.50;5058402;28;20068;-93
2022/12/11 01:45:43;;;;;;;63.13;57.58;;;;;;;14.72;100.00;98922.25;5057816;28;20052;-94
2022/12/11 01:48:14;;;;;;;65.50;59.78;;;;;;;14.53;100.00;98903.41;5058145;28;20029;-95
2022/12/11 01:50:45;;;;;;;63.25;57.75;;;;;;;14.04;100.00;98878.25;5058423;28;20030;-94
2022/12/11 01:53:18;;;;;;;62.10;56.70;;;;;;;13.88;100.00;98884.69;5058527;28;20037;-94
2022/12/11 01:55:48;;;;;;;57.75;52.65;;;;;;;14.24;100.00;98879.22;5057445;28;20037;-94
2022/12/11 01:58:17;;;;;;;61.15;54.67;;;;;;;14.51;100.00;98876.97;5058249;28;20025;-95
2022/12/11 02:00:44;;;;;;;67.05;61.30;;;;;;;14.55;100.00;98875.31;5057184;28;20053;-95
2022/12/11 02:03:14;;;;;;;61.38;56.20;;;;;;;14.33;100.00;98874.91;5057087;28;20048;-94
2022/12/11 02:05:41;;;;;;;67.30;60.85;;;;;;;14.50;100.00;98870.00;5057565;28;20045;-94
2022/12/11 02:08:08;;;;;;;57.83;52.30;;;;;;;14.18;100.00;98860.53;5058113;28;20037;-95
2022/12/11 02:10:51;;;;;;;62.85;57.33;;;;;;;13.75;100.00;98846.84;5056824;28;20045;-94
2022/12/11 02:13:24;;;;;;;62.50;56.38;;;;;;;14.51;100.00;98847.56;5057753;28;20056;-94
2022/12/11 02:16:03;;;;;;;69.53;63.00;;;;;;;14.70;100.00;98847.72;5058155;28;20033;-95
2022/12/11 02:18:36;;;;;;;65.20;59.15;;;;;;;14.93;100.00;98832.84;5057267;28;20072;-96
2022/12/11 02:21:10;;;;;;;67.18;60.88;;;;;;;15.20;100.00;98842.25;5058132;28;20034;-94
2022/12/11 02:24:04;;;;;;;71.68;65.47;;;;;;;15.29;100.00;98838.69;5057498;28;20056;-95
2022/12/11 02:26:50;;;;;;;69.47;63.88;;;;;;;15.65;100.00;98835.63;5057533;28;20076;-95
2022/12/11 02:29:22;;;;;;;62.58;56.60;;;;;;;15.93;100.00;98836.66;5057079;28;20041;-93
2022/12/11 02:31:54;;;;;;;68.70;62.22;;;;;;;15.86;100.00;98838.91;5057561;28;20060;-95
2022/12/11 02:34:28;;;;;;;87.35;79.97;;;;;;;15.67;100.00;98844.19;5057731;28;20088;-94
2022/12/11 02:37:00;;;;;;;85.03;78.28;;;;;;;15.73;100.00;98847.59;5057282;28;20038;-94
2022/12/11 02:39:27;;;;;;;;;;;;;;;15.87;100.00;98837.81;5057994;28;20055;-94
2022/12/11 02:41:56;;;;;;;74.40;68.07;;;;;;;15.95;100.00;98825.69;5057085;28;19925;-94
2022/12/11 02:44:27;;;;;;;69.72;63.15;;;;;;;16.09;100.00;98834.59;5057169;28;20033;-94
2022/12/11 02:46:55;;;;;;;77.18;70.38;;;;;;;16.09;100.00;98815.06;5057295;28;20055;-94
2022/12/11 02:49:24;;;;;;;82.25;75.13;;;;;;;16.01;100.00;98829.91;5057613;28;20048;-94
2022/12/11 02:51:52;;;;;;;75.85;69.22;;;;;;;15.82;100.00;98829.03;5056825;28;20030;-95
2022/12/11 02:54:27;;;;;;;63.25;57.40;;;;;;;16.23;100.00;98815.94;5057324;28;20064;-95
2022/12/11 02:56:59;;;;;;;80.70;73.45;;;;;;;16.30;100.00;98815.56;5056244;28;20049;-94
2022/12/11 02:59:34;;;;;;;92.20;84.03;;;;;;;15.84;100.00;98805.47;5057433;28;20053;-95
2022/12/11 03:02:02;;;;;;;69.50;63.50;;;;;;;15.96;100.00;98809.31;5044732;23;20073;-83
2022/12/11 03:04:29;;;;;;;72.72;65.93;;;;;;;16.23;100.00;98806.03;5033588;28;20148;-83
2022/12/11 03:07:01;;;;;;;74.82;68.00;;;;;;;16.24;100.00;98806.81;5033397;28;20452;-84
2022/12/11 03:09:28;;;;;;;67.78;62.00;;;;;;;16.23;100.00;98797.97;5033786;28;20053;-82
2022/12/11 03:11:55;;;;;;;82.22;75.07;;;;;;;16.33;100.00;98793.56;5032755;28;20053;-83
2022/12/11 03:14:22;;;;;;;74.63;68.32;;;;;;;16.14;100.00;98790.91;5032993;28;20041;-83
2022/12/11 03:16:59;;;;;;;70.93;64.40;;;;;;;16.34;100.00;98801.31;5019883;28;20136;-83
2022/12/11 03:19:32;;;;;;;65.40;59.15;;;;;;;16.42;100.00;98803.34;5022822;28;20046;-83
2022/12/11 03:22:09;;;;;;;60.58;55.70;;;;;;;16.22;100.00;98801.75;5037102;28;20049;-83
2022/12/11 03:24:41;;;;;;;68.25;61.88;;;;;;;16.44;100.00;98803.84;5036949;28;20081;-83
2022/12/11 03:27:18;;;;;;;75.10;68.75;;;;;;;16.45;100.00;98810.78;5037299;28;20126;-83
2022/12/11 03:29:54;;;;;;;64.97;59.25;;;;;;;16.56;100.00;98810.66;5036773;28;20560;-85
2022/12/11 03:32:28;;;;;;;65.38;59.80;;;;;;;16.71;100.00;98795.13;5037010;28;20049;-83
2022/12/11 03:34:59;;;;;;;65.53;59.78;;;;;;;16.74;100.00;98796.44;5036263;28;20061;-83
2022/12/11 03:37:31;;;;;;;68.53;62.35;;;;;;;16.68;100.00;98778.84;5037219;28;20041;-84
2022/12/11 03:40:02;;;;;;;61.75;56.65;;;;;;;16.66;100.00;98797.09;5036814;28;20058;-83
2022/12/11 03:42:29;;;;;;;65.32;59.88;;;;;;;16.49;100.00;98789.59;5037264;28;20132;-83
2022/12/11 03:44:58;;;;;;;63.28;57.72;;;;;;;16.61;100.00;98802.53;5037084;28;20042;-82
2022/12/11 03:47:30;;;;;;;74.78;69.43;;;;;;;17.12;100.00;98790.97;5036380;28;20041;-83
2022/12/11 03:49:58;;;;;;;66.00;61.08;;;;;;;16.90;100.00;98786.28;5037127;28;20050;-81
2022/12/11 03:52:27;;;;;;;68.03;62.67;;;;;;;17.00;100.00;98778.03;5036222;28;20100;-82
2022/12/11 03:54:57;;;;;;;64.35;59.15;;;;;;;16.97;100.00;98775.94;5035970;28;20551;-82
2022/12/11 03:57:29;;;;;;;63.55;58.38;;;;;;;16.82;100.00;98765.50;5033132;28;20046;-84
2022/12/11 03:59:56;;;;;;;63.67;59.00;;;;;;;16.91;100.00;98769.09;5032154;28;20440;-83
2022/12/11 04:02:23;;;;;;;58.53;53.53;;;;;;;16.94;100.00;98760.44;5036633;28;20057;-82
2022/12/11 04:04:51;;;;;;;61.25;56.75;;;;;;;17.07;100.00;98761.59;5035676;28;20500;-84
2022/12/11 04:07:18;;;;;;;60.22;55.58;;;;;;;17.22;100.00;98777.41;5036562;28;20075;-84
2022/12/11 04:09:44;;;;;;;61.08;56.35;;;;;;;17.24;100.00;98769.84;5036028;28;20107;-82
2022/12/11 04:12:11;;;;;;;63.63;59.10;;;;;;;17.24;100.00;98758.31;5036928;28;20057;-82
2022/12/11 04:25:33;;;;;;;66.20;61.50;;;;;;;17.27;100.00;98779.97;5036095;28;20114;-83
2022/12/11 04:27:59;;;;;;;66.75;62.08;;;;;;;17.20;100.00;98771.53;5035551;28;20053;-83
2022/12/11 04:30:26;;;;;;;67.30;62.00;;;;;;;17.20;100.00;98774.22;5036352;28;20042;-81
2022/12/11 04:32:54;;;;;;;68.55;63.55;;;;;;;17.18;100.00;98766.44;5035053;28;20107;-82
2022/12/11 04:35:23;;;;;;;77.68;72.20;;;;;;;17.05;100.00;98771.81;5035279;28;20119;-82
2022/12/11 04:37:50;;;;;;;64.10;59.53;;;;;;;17.13;100.00;98766.56;5035288;28;20057;-83
2022/12/11 04:40:19;;;;;;;70.63;65.53;;;;;;;17.05;100.00;98772.59;5036479;28;20045;-83
2022/12/11 04:42:46;;;;;;;76.32;70.45;;;;;;;17.07;100.00;98772.31;5036053;28;20045;-83
2022/12/11 04:45:13;;;;;;;68.43;63.63;;;;;;;17.11;100.00;98776.00;5035715;28;20473;-81
2022/12/11 04:47:41;;;;;;;66.65;61.67;;;;;;;17.27;100.00;98774.59;5035767;28;20045;-83
2022/12/11 04:50:13;;;;;;;62.85;58.38;;;;;;;17.16;100.00;98784.75;4998348;28;20420;-82
2022/12/11 04:52:42;;;;;;;62.63;58.13;;;;;;;17.16;100.00;98786.63;5037587;28;20104;-82
2022/12/11 04:55:11;;;;;;;60.80;56.58;;;;;;;17.23;100.00;98794.28;5034817;28;20080;-82
2022/12/11 04:57:37;;;;;;;63.35;58.03;;;;;;;17.06;100.00;98800.22;5035078;28;20049;-82
2022/12/11 05:00:05;;;;;;;59.88;55.67;;;;;;;17.15;100.00;98793.88;5036067;28;20045;-82
2022/12/11 05:02:35;;;;;;;64.00;59.00;;;;;;;17.06;100.00;98801.00;5033698;28;20131;-83
2022/12/11 05:05:02;;;;;;;62.58;57.63;;;;;;;17.05;100.00;98798.63;5034802;28;20045;-82
2022/12/11 05:07:29;;;;;;;60.67;56.38;;;;;;;16.81;100.00;98796.06;5035410;28;20057;-82
2022/12/11 05:09:58;;;;;;;59.17;54.63;;;;;;;17.03;100.00;98809.63;5035614;28;20444;-82
2022/12/11 05:12:24;;;;;;;62.97;58.13;;;;;;;17.17;100.00;98807.00;5034512;28;20489;-82
2022/12/11 05:14:52;;;;;;;59.88;55.22;;;;;;;17.09;100.00;98818.38;5034971;28;20049;-83
2022/12/11 05:17:19;;;;;;;55.70;51.05;;;;;;;17.01;100.00;98813.72;5034822;28;20485;-84
2022/12/11 05:19:47;;;;;;;50.15;46.13;;;;;;;16.97;100.00;98810.81;5034313;28;20042;-81
2022/12/11 05:22:14;;;;;;;55.53;51.13;;;;;;;16.90;100.00;98808.50;5034622;28;20084;-83
2022/12/11 05:24:41;;;;;;;55.17;50.80;;;;;;;17.01;100.00;98813.72;5035454;28;20041;-82
2022/12/11 05:27:10;;;;;;;54.65;50.30;;;;;;;16.89;100.00;98808.81;5034873;28;20049;-84
2022/12/11 05:29:37;;;;;;;55.85;51.58;;;;;;;17.16;100.00;98802.72;5034343;28;20057;-84
2022/12/11 05:32:04;;;;;;;61.47;56.50;;;;;;;17.00;100.00;98807.53;5034752;28;20122;-82
2022/12/11 05:34:31;;;;;;;56.50;52.20;;;;;;;17.04;100.00;98813.94;5033318;28;20137;-83
2022/12/11 05:36:58;;;;;;;59.30;54.85;;;;;;;17.04;100.00;98815.81;5034453;28;20129;-82
2022/12/11 05:39:25;;;;;;;62.55;58.00;;;;;;;17.21;100.00;98829.44;5034278;28;20060;-82
2022/12/11 05:41:52;;;;;;;61.90;57.05;;;;;;;17.20;100.00;98853.91;5034569;28;20053;-81
2022/12/11 05:44:20;;;;;;;59.17;54.55;;;;;;;16.97;100.00;98853.72;5033654;28;20052;-81
2022/12/11 05:46:48;;;;;;;53.47;49.05;;;;;;;16.93;100.00;98858.09;5033581;28;20461;-83
2022/12/11 05:49:14;;;;;;;53.30;48.67;;;;;;;16.90;100.00;98851.41;5034040;28;20478;-82
2022/12/11 05:51:42;;;;;;;47.05;43.00;;;;;;;16.87;100.00;98857.38;5033334;28;20118;-83
2022/12/11 05:54:09;;;;;;;47.70;43.53;;;;;;;16.81;100.00;98860.41;5034025;28;20049;-83
2022/12/11 05:56:37;;;;;;;49.70;45.30;;;;;;;16.90;100.00;98872.88;5033203;28;20057;-83
2022/12/11 05:59:06;;;;;;;48.65;44.45;;;;;;;16.73;100.00;98872.56;5033847;28;20083;-83
2022/12/11 06:01:36;;;;;;;49.30;44.95;;;;;;;16.72;100.00;98879.00;5033531;28;20068;-82
2022/12/11 06:04:04;;;;;;;48.70;44.78;;;;;;;16.67;100.00;98885.25;5033460;28;20049;-83
2022/12/11 06:06:31;;;;;;;52.47;47.88;;;;;;;16.61;100.00;98882.91;5033128;28;20111;-83
2022/12/11 06:08:59;;;;;;;47.30;43.53;;;;;;;16.66;100.00;98891.69;5033284;28;20052;-84
2022/12/11 06:11:28;;;;;;;46.72;42.67;;;;;;;16.76;100.00;98898.03;5033303;28;20053;-83
2022/12/11 06:13:55;;;;;;;50.67;46.17;;;;;;;16.57;100.00;98898.78;5033641;28;20115;-84
2022/12/11 06:16:23;;;;;;;49.35;45.45;;;;;;;16.38;100.00;98900.66;5033789;28;20049;-83
2022/12/11 06:18:52;;;;;;;47.45;43.78;;;;;;;16.47;100.00;98910.44;5029789;28;20458;-83
2022/12/11 06:21:22;;;;;;;47.80;43.60;;;;;;;16.65;100.00;98918.78;5021012;28;20053;-83
2022/12/11 06:23:51;;;;;;;48.60;44.70;;;;;;;16.46;100.00;98924.94;5028114;28;20046;-82
2022/12/11 06:26:20;;;;;;;48.03;43.53;;;;;;;16.59;100.00;98920.75;5030359;28;20092;-83
2022/12/11 06:28:49;;;;;;;48.50;44.60;;;;;;;16.58;100.00;98923.69;5032392;28;20064;-84
2022/12/11 06:31:16;;;;;;;49.28;45.33;;;;;;;16.57;100.00;98944.34;5033598;28;20440;-83
2022/12/11 06:33:42;;;;;;;47.92;43.40;;;;;;;16.57;100.00;98933.63;5033034;28;20473;-82
2022/12/11 06:36:13;;;;;;;47.22;43.35;;;;;;;16.65;100.00;98938.34;5032626;28;20489;-81
2022/12/11 06:38:41;;;;;;;47.85;43.83;;;;;;;16.64;100.00;98931.41;5033822;28;20064;-81
2022/12/11 06:41:08;;;;;;;47.88;44.13;;;;;;;16.71;100.00;98936.41;5001174;28;20050;-81
2022/12/11 06:43:37;;;;;;;45.63;42.13;;;;;;;16.74;100.00;98940.38;5012423;28;20513;-83
2022/12/11 06:46:05;;;;;;;47.85;44.28;;;;;;;16.54;100.00;98944.91;5012340;28;20386;-83
2022/12/11 06:48:32;;;;;;;48.28;44.20;;;;;;;16.36;100.00;98949.16;5005458;28;20156;-85
2022/12/11 06:50:58;;;;;;;44.85;41.05;;;;;;;16.68;100.00;98940.44;5012714;28;20112;-82
2022/12/11 06:53:30;;;;;;;47.08;43.03;;;;;;;16.68;100.00;98939.66;5008953;28;20061;-82
2022/12/11 06:56:02;;;;;;;47.30;43.15;;;;;;;16.66;100.00;98934.56;5010340;28;20061;-83
2022/12/11 06:58:28;;;;;;;47.55;42.90;;;;;;;16.58;100.00;98935.25;5012693;28;20042;-85
2022/12/11 07:00:55;;;;;;;46.95;42.92;;;;;;;16.72;100.00;98954.06;5012919;28;20119;-83
2022/12/11 07:03:22;;;;;;;44.53;40.70;;;;;;;16.77;100.00;98955.94;5012106;28;20103;-81
2022/12/11 07:05:49;;;;;;;45.00;41.35;;;;;;;16.58;100.00;98964.72;5012009;28;20116;-84
2022/12/11 07:08:15;;;;;;;47.70;43.17;;;;;;;16.62;100.00;98971.09;5012040;28;20117;-84
2022/12/11 07:10:44;;;;;;;49.28;44.60;;;;;;;16.84;100.00;98972.44;5012893;28;20291;-84
2022/12/11 07:13:11;;;;;;;47.00;43.15;;;;;;;16.77;100.00;98966.66;5013518;28;20053;-83
2022/12/11 07:15:38;;;;;;;47.72;43.60;;;;;;;16.63;100.00;98978.03;5013580;28;20050;-83
2022/12/11 07:18:05;;;;;;;49.63;45.45;;;;;;;16.93;100.00;98976.84;5013712;28;20050;-83
2022/12/11 07:20:32;;;;;;;49.28;44.88;;;;;;;16.80;100.00;98982.16;5012819;28;20111;-83
2022/12/11 07:22:59;;;;;;;48.78;44.50;;;;;;;17.00;100.00;98989.09;5012658;28;20057;-83
2022/12/11 07:25:25;;;;;;;48.42;44.15;;;;;;;16.95;100.00;98992.66;5012824;28;20061;-82
2022/12/11 07:27:53;;;;;;;49.03;44.45;;;;;;;16.92;100.00;98983.31;5012425;28;20112;-85
2022/12/11 07:30:20;;;;;;;50.35;45.95;;;;;;;16.92;100.00;98985.22;5013536;28;20046;-85
2022/12/11 07:32:47;;;;;;;48.85;44.92;;;;;;;17.07;100.00;98992.25;5013359;28;20112;-83
2022/12/11 07:35:16;;;;;;;50.08;45.88;;;;;;;17.67;100.00;98991.56;5013536;28;20406;-85
2022/12/11 07:37:44;;;;;;;52.85;48.50;;;;;;;18.29;100.00;98998.25;5011198;28;20402;-82
2022/12/11 07:40:12;;;;;;;47.97;44.25;;;;;;;18.71;100.00;98992.84;5006182;28;20053;-83
2022/12/11 07:42:39;;;;;;;47.00;43.33;;;;;;;18.97;100.00;98988.56;5013204;28;20534;-86
2022/12/11 07:45:08;;;;;;;47.80;44.38;;;;;;;19.05;100.00;98995.09;5013802;28;20062;-83
2022/12/11 07:47:35;;;;;;;49.08;44.83;;;;;;;19.12;100.00;98989.28;5013013;28;20058;-84
2022/12/11 07:50:01;;;;;;;49.85;45.97;;;;;;;19.03;100.00;98991.91;5012508;28;20058;-84
2022/12/11 07:52:29;;;;;;;50.10;46.20;;;;;;;19.31;100.00;98991.84;5006380;28;20046;-82
2022/12/11 07:54:57;;;;;;;50.95;46.80;;;;;;;19.51;100.00;98991.31;5012579;28;20096;-83
2022/12/11 07:57:24;;;;;;;49.95;46.28;;;;;;;19.63;100.00;99010.41;5013584;28;20061;-85
2022/12/11 07:59:51;;;;;;;50.17;46.45;;;;;;;19.30;100.00;99009.84;5012288;28;20491;-82
2022/12/11 08:02:19;;;;;;;45.90;42.42;;;;;;;18.85;100.00;99015.19;5012447;28;20049;-84
2022/12/11 08:04:48;;;;;;;47.72;43.65;;;;;;;19.85;100.00;99015.03;5013014;28;20556;-82
2022/12/11 08:07:15;;;;;;;46.33;42.83;;;;;;;19.36;100.00;99013.22;5014374;28;20056;-86
2022/12/11 08:09:42;;;;;;;47.17;43.80;;;;;;;19.50;100.00;99022.06;5012776;28;20380;-83
2022/12/11 08:12:09;;;;;;;49.05;45.40;;;;;;;18.89;100.00;99023.44;5013103;28;20396;-84
2022/12/11 08:14:36;;;;;;;43.95;40.72;;;;;;;13.92;100.00;99030.66;5011393;28;20065;-84
2022/12/11 08:17:02;;;;;;;45.80;42.00;;;;;;;12.26;100.00;99028.91;5013898;28;20107;-82
2022/12/11 08:19:31;;;;;;;51.83;47.53;;;;;;;11.91;100.00;99019.63;5010078;28;20051;-82
2022/12/11 08:21:57;;;;;;;48.78;44.92;;;;;;;12.48;100.00;99015.44;5011439;28;20056;-82
2022/12/11 08:24:24;;;;;;;48.58;44.38;;;;;;;11.87;100.00;99025.75;5014077;28;20461;-84
2022/12/11 08:26:51;;;;;;;47.95;43.90;;;;;;;11.05;100.00;99027.66;5010193;28;20041;-83
2022/12/11 08:29:17;;;;;;;46.30;42.53;;;;;;;10.72;100.00;99021.44;5006570;28;20374;-82
2022/12/11 08:31:44;;;;;;;45.78;41.53;;;;;;;11.07;100.00;99025.53;5015672;28;20433;-84
2022/12/11 08:34:12;;;;;;;48.28;43.63;;;;;;;11.34;100.00;99019.41;5013562;28;20045;-82
2022/12/11 08:36:41;;;;;;;47.42;43.42;;;;;;;12.46;100.00;99019.41;5012566;28;20046;-82
2022/12/11 08:39:08;;;;;;;45.97;42.03;;;;;;;11.26;100.00;99035.81;5016052;28;20052;-83
2022/12/11 08:41:35;;;;;;;44.78;41.17;;;;;;;11.78;100.00;99030.69;5016071;28;20398;-85
2022/12/11 08:44:01;;;;;;;42.40;39.40;;;;;;;12.01;100.00;99029.56;5015613;28;20548;-84
2022/12/11 08:46:30;;;;;;;47.78;43.17;;;;;;;12.19;100.00;99025.66;5016039;28;20129;-85
2022/12/11 08:48:58;;;;;;;49.47;44.78;;;;;;;11.40;100.00;99026.38;5015044;28;20050;-82
2022/12/11 08:51:26;;;;;;;47.05;43.17;;;;;;;12.44;100.00;99033.00;5013102;28;20045;-83
2022/12/11 08:53:56;;;;;;;45.53;41.20;;;;;;;13.75;100.00;99030.94;5003160;28;20061;-82
2022/12/11 08:56:27;;;;;;;47.97;44.20;;;;;;;12.13;100.00;99029.34;5014093;28;20045;-82
2022/12/11 08:58:54;;;;;;;45.10;41.55;;;;;;;12.04;100.00;99036.22;5015313;28;20054;-82
2022/12/11 09:01:24;;;;;;;41.72;38.90;;;;;;;12.81;100.00;99040.09;5015884;28;20406;-83
2022/12/11 09:03:53;;;;;;;43.95;40.42;;;;;;;13.32;100.00;99045.59;5016452;28;20042;-84
2022/12/11 09:06:22;;;;;;;42.38;39.55;;;;;;;14.41;100.00;99045.25;5013904;28;20047;-84
2022/12/11 09:08:50;;;;;;;44.90;41.25;;;;;;;15.52;100.00;99043.13;5013087;28;20050;-83
2022/12/11 09:11:22;;;;;;;43.78;40.22;;;;;;;17.81;100.00;99040.75;5006990;28;20112;-82
2022/12/11 09:13:49;;;;;;;44.65;41.42;;;;;;;16.23;100.00;99044.41;5012983;28;20406;-83
2022/12/11 09:16:18;;;;;;;44.08;40.83;;;;;;;15.76;100.00;99050.47;5016453;28;20050;-82
2022/12/11 09:18:46;;;;;;;44.78;41.55;;;;;;;16.20;100.00;99055.69;5006969;28;20639;-84
2022/12/11 09:21:16;;;;;;;49.25;45.75;;;;;;;16.68;100.00;99046.88;5015317;28;20042;-87
2022/12/11 09:23:43;;;;;;;45.95;42.28;;;;;;;16.11;100.00;99048.56;5014746;28;20492;-88
2022/12/11 09:26:12;;;;;;;45.45;41.78;;;;;;;15.14;100.00;99049.25;5000762;28;20058;-88
2022/12/11 09:28:50;;;;;;;49.00;45.13;;;;;;;15.33;100.00;99042.97;4996346;28;20047;-87
2022/12/11 09:31:22;;;;;;;48.10;44.10;;;;;;;15.38;100.00;99052.84;5011911;28;20571;-88
2022/12/11 09:33:51;;;;;;;45.50;41.80;;;;;;;16.94;100.00;99050.06;5016872;28;20435;-85
2022/12/11 09:36:25;;;;;;;46.92;43.75;;;;;;;18.71;100.00;99043.94;5018204;28;20050;-82
2022/12/11 09:38:54;;;;;;;46.53;43.75;;;;;;;20.10;100.00;99037.81;5007183;28;20077;-87
2022/12/11 09:41:49;;;;;;;46.10;43.20;;;;;;;17.75;100.00;99041.91;5020272;28;20053;-89
2022/12/11 09:44:35;;;;;;;44.42;41.30;;;;;;;15.70;100.00;99056.94;5017938;28;20466;-87
2022/12/11 09:47:02;;;;;;;45.22;42.03;;;;;;;15.71;100.00;99059.34;5010239;28;20086;-87
2022/12/11 09:49:37;;;;;;;45.10;41.95;;;;;;;15.83;100.00;99056.31;5018068;28;20427;-85
2022/12/11 09:52:13;;;;;;;45.20;41.85;;;;;;;15.30;100.00;99050.75;5016982;28;20050;-86
2022/12/11 09:54:50;;;;;;;45.40;42.30;;;;;;;15.66;100.00;99054.00;5007180;28;20050;-87
2022/12/11 09:57:35;;;;;;;48.60;45.25;;;;;;;14.88;100.00;99060.06;4997510;28;20137;-88
2022/12/11 10:00:18;;;;;;;45.15;41.78;;;;;;;13.92;100.00;99056.56;5016479;28;20112;-86
2022/12/11 10:03:32;;;;;;;46.88;42.97;;;;;;;13.94;100.00;99065.88;5017009;28;20057;-87
2022/12/11 10:06:07;;;;;;;47.33;43.75;;;;;;;14.15;100.00;99071.19;4980660;28;20467;-87
2022/12/11 10:08:44;;;;;;;45.15;41.55;;;;;;;13.53;100.00;99086.41;5004444;28;20049;-87
2022/12/11 10:11:36;;;;;;;45.55;42.40;;;;;;;15.00;100.00;99094.50;5017385;28;20120;-86
2022/12/11 10:14:11;;;;;;;47.58;44.17;;;;;;;15.51;100.00;99067.47;5000572;28;20410;-86
2022/12/11 10:16:44;;;;;;;45.80;42.45;;;;;;;14.72;100.00;99066.56;4996239;28;20057;-86
2022/12/11 10:19:18;;;;;;;44.80;41.80;;;;;;;16.68;100.00;99074.47;4999200;28;20051;-88
2022/12/11 10:21:46;;;;;;;47.67;44.17;;;;;;;16.92;100.00;99066.44;4997232;28;20065;-87
2022/12/11 10:24:20;;;;;;;47.05;43.53;;;;;;;16.58;100.00;99049.66;4999445;28;20108;-87
2022/12/11 10:26:56;;;;;;;48.55;44.83;;;;;;;15.78;100.00;99051.78;4998248;28;20050;-89
2022/12/11 10:29:23;;;;;;;48.33;45.22;;;;;;;15.62;100.00;99050.28;4998890;28;20051;-86
2022/12/11 10:31:55;;;;;;;46.67;43.33;;;;;;;15.55;100.00;99039.06;4997412;28;20050;-88
2022/12/11 10:34:30;;;;;;;46.60;43.58;;;;;;;14.72;100.00;99035.28;4999703;28;20054;-89
2022/12/11 10:36:57;;;;;;;45.63;42.53;;;;;;;16.16;100.00;99043.97;4996730;28;20050;-88
2022/12/11 10:39:24;;;;;;;44.28;41.58;;;;;;;15.90;100.00;99055.97;4995898;28;20046;-88
2022/12/11 10:41:53;;;;;;;45.13;42.05;;;;;;;15.10;100.00;99059.72;5000866;28;20072;-86
2022/12/11 10:44:21;;;;;;;43.83;40.90;;;;;;;14.54;100.00;99066.06;5000437;28;20120;-86
2022/12/11 10:47:02;;;;;;;47.15;43.83;;;;;;;13.52;100.00;99074.97;5001190;28;20108;-88
2022/12/11 10:49:31;;;;;;;49.65;46.05;;;;;;;14.63;100.00;99067.13;4995384;28;20046;-87
2022/12/11 10:52:00;;;;;;;55.90;51.35;;;;;;;14.11;100.00;99062.16;4998270;28;20058;-88
2022/12/11 10:54:38;;;;;;;48.38;44.78;;;;;;;14.12;100.00;99064.53;4998896;28;20109;-86
2022/12/11 10:57:07;;;;;;;47.22;43.88;;;;;;;14.53;100.00;99071.72;5016083;28;20038;-86
2022/12/11 10:59:39;;;;;;;47.78;44.20;;;;;;;13.70;100.00;99067.47;5019333;28;20065;-86
2022/12/11 11:02:21;;;;;;;45.90;42.40;;;;;;;13.38;100.00;99073.84;5016244;28;20053;-86
2022/12/11 11:04:49;;;;;;;;;;;;;;;13.15;100.00;99063.63;5019078;28;20119;-88
2022/12/11 11:07:22;;;;;;;50.15;46.55;;;;;;;13.65;100.00;99073.63;5017403;28;19937;-85
2022/12/11 11:09:48;;;;;;;;;;;;;;;13.41;100.00;99084.00;5019509;28;20144;-88
2022/12/11 11:12:25;;;;;;;48.22;44.65;;;;;;;13.32;100.00;99080.25;5014872;28;20137;-86
2022/12/11 11:15:02;;;;;;;48.28;44.22;;;;;;;13.31;100.00;99078.63;5018979;28;20065;-88
2022/12/11 11:17:31;;;;;;;49.25;45.25;;;;;;;12.95;100.00;99080.34;5017810;28;20045;-87
2022/12/11 11:20:04;;;;;;;45.55;42.42;;;;;;;12.71;100.00;99083.47;5017084;28;20065;-89
2022/12/11 11:22:32;;;;;;;50.05;46.00;;;;;;;12.90;100.00;99089.16;5019464;28;20050;-91
2022/12/11 11:25:00;;;;;;;50.72;46.95;;;;;;;13.07;100.00;99092.41;5019680;28;20072;-89
2022/12/11 11:27:33;;;;;;;54.42;50.08;;;;;;;12.52;100.00;99098.28;5015788;28;20065;-85
2022/12/11 11:30:03;;;;;;;53.22;48.65;;;;;;;12.64;100.00;99101.53;5019015;28;20057;-85
2022/12/11 11:32:34;;;;;;;45.30;42.20;;;;;;;12.74;100.00;99104.25;5015807;28;20050;-88